sensor_id;sensor_type;location;lat;lon;timestamp;P1;durP1;ratioP1;P2;durP2;ratioP2
47617;SDS011;33336;36.728;-4.414;2024-01-10T00:04:26;33.75;;;25.88;;
47617;SDS011;33336;36.728;-4.414;2024-01-10T00:09:31;35.03;;;26.20;;
47617;SDS011;33336;36.728;-4.414;2024-01-10T00:14:33;35.85;;;27.27;;
47617;SDS011;33336;36.728;-4.414;2024-01-10T00:19:37;33.17;;;26.05;;
47617;SDS011;33336;36.728;-4.414;2024-01-10T00:24:41;33.53;;;25.08;;
47617;SDS011;33336;36.728;-4.414;2024-01-10T00:29:44;36.10;;;26.88;;
47617;SDS011;33336;36.728;-4.414;2024-01-10T00:34:47;36.45;;;27.38;;
47617;SDS011;33336;36.728;-4.414;2024-01-10T00:39:52;36.17;;;28.08;;
47617;SDS011;33336;36.728;-4.414;2024-01-10T00:44:54;35.20;;;27.48;;
47617;SDS011;33336;36.728;-4.414;2024-01-10T00:49:58;34.17;;;28.20;;
47617;SDS011;33336;36.728;-4.414;2024-01-10T00:55:02;34.95;;;26.45;;
47617;SDS011;33336;36.728;-4.414;2024-01-10T01:00:07;36.25;;;28.10;;
47617;SDS011;33336;36.728;-4.414;2024-01-10T01:05:11;36.17;;;27.42;;
47617;SDS011;33336;36.728;-4.414;2024-01-10T01:10:19;33.55;;;27.88;;
47617;SDS011;33336;36.728;-4.414;2024-01-10T01:15:23;37.53;;;29.67;;
47617;SDS011;33336;36.728;-4.414;2024-01-10T01:20:26;36.85;;;27.52;;
47617;SDS011;33336;36.728;-4.414;2024-01-10T01:25:30;33.28;;;24.05;;
47617;SDS011;33336;36.728;-4.414;2024-01-10T01:30:34;27.80;;;23.05;;
47617;SDS011;33336;36.728;-4.414;2024-01-10T01:35:37;25.02;;;21.55;;
47617;SDS011;33336;36.728;-4.414;2024-01-10T01:40:42;29.33;;;22.80;;
47617;SDS011;33336;36.728;-4.414;2024-01-10T01:45:45;29.50;;;23.77;;
47617;SDS011;33336;36.728;-4.414;2024-01-10T01:50:49;30.67;;;25.02;;
47617;SDS011;33336;36.728;-4.414;2024-01-10T01:55:55;27.52;;;22.38;;
47617;SDS011;33336;36.728;-4.414;2024-01-10T02:01:00;30.40;;;22.88;;
47617;SDS011;33336;36.728;-4.414;2024-01-10T02:06:04;28.67;;;23.83;;
47617;SDS011;33336;36.728;-4.414;2024-01-10T02:11:10;30.92;;;24.70;;
47617;SDS011;33336;36.728;-4.414;2024-01-10T02:16:12;31.25;;;24.55;;
47617;SDS011;33336;36.728;-4.414;2024-01-10T02:21:16;34.75;;;26.10;;
47617;SDS011;33336;36.728;-4.414;2024-01-10T02:26:23;34.78;;;26.17;;
47617;SDS011;33336;36.728;-4.414;2024-01-10T02:31:28;39.17;;;27.77;;
47617;SDS011;33336;36.728;-4.414;2024-01-10T02:36:31;34.20;;;26.05;;
47617;SDS011;33336;36.728;-4.414;2024-01-10T02:41:36;31.90;;;26.30;;
47617;SDS011;33336;36.728;-4.414;2024-01-10T02:46:38;34.88;;;26.05;;
47617;SDS011;33336;36.728;-4.414;2024-01-10T02:51:41;34.20;;;25.70;;
47617;SDS011;33336;36.728;-4.414;2024-01-10T02:56:45;29.63;;;23.58;;
47617;SDS011;33336;36.728;-4.414;2024-01-10T03:01:49;33.13;;;25.90;;
47617;SDS011;33336;36.728;-4.414;2024-01-10T03:06:52;33.28;;;25.95;;
47617;SDS011;33336;36.728;-4.414;2024-01-10T03:11:56;29.63;;;22.80;;
47617;SDS011;33336;36.728;-4.414;2024-01-10T03:16:59;30.55;;;24.45;;
47617;SDS011;33336;36.728;-4.414;2024-01-10T03:22:03;31.15;;;24.48;;
47617;SDS011;33336;36.728;-4.414;2024-01-10T03:27:07;33.38;;;23.08;;
47617;SDS011;33336;36.728;-4.414;2024-01-10T03:32:11;30.42;;;23.88;;
47617;SDS011;33336;36.728;-4.414;2024-01-10T03:37:14;35.40;;;25.00;;
47617;SDS011;33336;36.728;-4.414;2024-01-10T03:42:18;33.75;;;24.77;;
47617;SDS011;33336;36.728;-4.414;2024-01-10T03:47:21;32.63;;;23.63;;
47617;SDS011;33336;36.728;-4.414;2024-01-10T03:52:24;30.98;;;24.13;;
47617;SDS011;33336;36.728;-4.414;2024-01-10T03:57:28;27.63;;;23.75;;
47617;SDS011;33336;36.728;-4.414;2024-01-10T04:02:31;26.08;;;20.85;;
47617;SDS011;33336;36.728;-4.414;2024-01-10T04:07:34;19.23;;;16.52;;
47617;SDS011;33336;36.728;-4.414;2024-01-10T04:12:39;22.90;;;17.05;;
47617;SDS011;33336;36.728;-4.414;2024-01-10T04:17:43;17.92;;;13.38;;
47617;SDS011;33336;36.728;-4.414;2024-01-10T04:22:47;12.30;;;9.82;;
47617;SDS011;33336;36.728;-4.414;2024-01-10T04:27:51;9.55;;;7.68;;
47617;SDS011;33336;36.728;-4.414;2024-01-10T04:32:55;5.80;;;4.13;;
47617;SDS011;33336;36.728;-4.414;2024-01-10T04:37:58;8.05;;;4.80;;
47617;SDS011;33336;36.728;-4.414;2024-01-10T04:43:03;2.72;;;2.30;;
47617;SDS011;33336;36.728;-4.414;2024-01-10T04:48:06;2.88;;;1.90;;
47617;SDS011;33336;36.728;-4.414;2024-01-10T04:53:10;4.32;;;2.00;;
47617;SDS011;33336;36.728;-4.414;2024-01-10T04:58:14;8.65;;;2.05;;
47617;SDS011;33336;36.728;-4.414;2024-01-10T05:03:18;2.97;;;1.67;;
47617;SDS011;33336;36.728;-4.414;2024-01-10T05:08:21;3.03;;;2.13;;
47617;SDS011;33336;36.728;-4.414;2024-01-10T05:13:26;2.22;;;2.00;;
47617;SDS011;33336;36.728;-4.414;2024-01-10T05:18:29;2.90;;;2.10;;
47617;SDS011;33336;36.728;-4.414;2024-01-10T05:23:33;2.33;;;1.65;;
47617;SDS011;33336;36.728;-4.414;2024-01-10T05:28:37;2.42;;;2.20;;
47617;SDS011;33336;36.728;-4.414;2024-01-10T05:33:41;3.53;;;2.58;;
47617;SDS011;33336;36.728;-4.414;2024-01-10T05:38:44;2.50;;;2.30;;
47617;SDS011;33336;36.728;-4.414;2024-01-10T05:43:48;4.07;;;2.70;;
47617;SDS011;33336;36.728;-4.414;2024-01-10T05:48:51;2.45;;;2.25;;
47617;SDS011;33336;36.728;-4.414;2024-01-10T05:53:55;2.88;;;2.45;;
47617;SDS011;33336;36.728;-4.414;2024-01-10T05:58:59;6.28;;;3.47;;
47617;SDS011;33336;36.728;-4.414;2024-01-10T06:04:03;3.20;;;2.33;;
47617;SDS011;33336;36.728;-4.414;2024-01-10T06:09:06;5.30;;;2.80;;
47617;SDS011;33336;36.728;-4.414;2024-01-10T06:14:13;3.20;;;2.90;;
47617;SDS011;33336;36.728;-4.414;2024-01-10T06:19:16;5.50;;;2.97;;
47617;SDS011;33336;36.728;-4.414;2024-01-10T06:24:20;2.95;;;2.60;;
47617;SDS011;33336;36.728;-4.414;2024-01-10T06:29:24;4.68;;;4.20;;
47617;SDS011;33336;36.728;-4.414;2024-01-10T06:34:28;4.28;;;3.10;;
47617;SDS011;33336;36.728;-4.414;2024-01-10T06:39:31;3.92;;;2.00;;
47617;SDS011;33336;36.728;-4.414;2024-01-10T06:44:36;5.78;;;2.38;;
47617;SDS011;33336;36.728;-4.414;2024-01-10T06:49:39;2.70;;;1.85;;
47617;SDS011;33336;36.728;-4.414;2024-01-10T06:54:43;1.20;;;1.10;;
47617;SDS011;33336;36.728;-4.414;2024-01-10T06:59:47;2.03;;;1.10;;
47617;SDS011;33336;36.728;-4.414;2024-01-10T07:04:51;1.13;;;1.02;;
47617;SDS011;33336;36.728;-4.414;2024-01-10T07:09:54;1.15;;;0.90;;
47617;SDS011;33336;36.728;-4.414;2024-01-10T07:14:58;1.33;;;1.13;;
47617;SDS011;33336;36.728;-4.414;2024-01-10T07:20:03;1.58;;;1.35;;
47617;SDS011;33336;36.728;-4.414;2024-01-10T07:25:08;2.05;;;1.48;;
47617;SDS011;33336;36.728;-4.414;2024-01-10T07:30:16;2.05;;;1.83;;
47617;SDS011;33336;36.728;-4.414;2024-01-10T07:35:19;5.03;;;2.22;;
47617;SDS011;33336;36.728;-4.414;2024-01-10T07:40:22;2.10;;;1.40;;
47617;SDS011;33336;36.728;-4.414;2024-01-10T07:45:26;1.75;;;1.05;;
47617;SDS011;33336;36.728;-4.414;2024-01-10T07:50:29;2.63;;;0.98;;
47617;SDS011;33336;36.728;-4.414;2024-01-10T07:55:32;1.08;;;0.85;;
47617;SDS011;33336;36.728;-4.414;2024-01-10T08:00:36;1.00;;;0.80;;
47617;SDS011;33336;36.728;-4.414;2024-01-10T08:05:40;1.10;;;0.80;;
47617;SDS011;33336;36.728;-4.414;2024-01-10T08:10:43;1.70;;;0.88;;
47617;SDS011;33336;36.728;-4.414;2024-01-10T08:15:47;1.60;;;1.15;;
47617;SDS011;33336;36.728;-4.414;2024-01-10T08:20:50;1.52;;;1.20;;
47617;SDS011;33336;36.728;-4.414;2024-01-10T08:25:54;5.15;;;1.20;;
47617;SDS011;33336;36.728;-4.414;2024-01-10T08:30:58;2.20;;;1.17;;
47617;SDS011;33336;36.728;-4.414;2024-01-10T08:36:02;3.63;;;1.90;;
47617;SDS011;33336;36.728;-4.414;2024-01-10T08:41:07;3.05;;;2.30;;
47617;SDS011;33336;36.728;-4.414;2024-01-10T08:46:13;2.33;;;1.50;;
47617;SDS011;33336;36.728;-4.414;2024-01-10T08:51:16;2.28;;;1.58;;
47617;SDS011;33336;36.728;-4.414;2024-01-10T08:56:20;1.40;;;1.30;;
47617;SDS011;33336;36.728;-4.414;2024-01-10T09:01:24;1.48;;;1.35;;
47617;SDS011;33336;36.728;-4.414;2024-01-10T09:06:28;1.73;;;1.23;;
47617;SDS011;33336;36.728;-4.414;2024-01-10T09:11:32;5.05;;;1.65;;
47617;SDS011;33336;36.728;-4.414;2024-01-10T09:16:37;6.07;;;1.60;;
47617;SDS011;33336;36.728;-4.414;2024-01-10T09:21:40;1.85;;;1.48;;
47617;SDS011;33336;36.728;-4.414;2024-01-10T09:26:44;4.32;;;2.13;;
47617;SDS011;33336;36.728;-4.414;2024-01-10T09:31:48;3.78;;;1.65;;
47617;SDS011;33336;36.728;-4.414;2024-01-10T09:36:52;3.17;;;1.17;;
47617;SDS011;33336;36.728;-4.414;2024-01-10T09:41:55;5.68;;;1.60;;
47617;SDS011;33336;36.728;-4.414;2024-01-10T09:47:01;4.25;;;1.67;;
47617;SDS011;33336;36.728;-4.414;2024-01-10T09:52:05;2.17;;;1.25;;
47617;SDS011;33336;36.728;-4.414;2024-01-10T09:57:12;3.45;;;2.10;;
47617;SDS011;33336;36.728;-4.414;2024-01-10T10:02:17;3.53;;;1.90;;
47617;SDS011;33336;36.728;-4.414;2024-01-10T10:07:21;3.15;;;1.83;;
47617;SDS011;33336;36.728;-4.414;2024-01-10T10:12:26;3.58;;;1.50;;
47617;SDS011;33336;36.728;-4.414;2024-01-10T10:17:46;5.32;;;1.20;;
47617;SDS011;33336;36.728;-4.414;2024-01-10T10:22:57;3.72;;;1.30;;
47617;SDS011;33336;36.728;-4.414;2024-01-10T10:28:02;2.95;;;1.10;;
47617;SDS011;33336;36.728;-4.414;2024-01-10T10:33:07;0.98;;;0.80;;
47617;SDS011;33336;36.728;-4.414;2024-01-10T10:38:12;2.78;;;1.10;;
47617;SDS011;33336;36.728;-4.414;2024-01-10T10:43:17;10.80;;;1.98;;
47617;SDS011;33336;36.728;-4.414;2024-01-10T10:48:24;2.17;;;1.50;;
47617;SDS011;33336;36.728;-4.414;2024-01-10T10:53:28;1.90;;;1.45;;
47617;SDS011;33336;36.728;-4.414;2024-01-10T10:58:32;5.05;;;2.25;;
47617;SDS011;33336;36.728;-4.414;2024-01-10T11:03:39;2.83;;;1.83;;
47617;SDS011;33336;36.728;-4.414;2024-01-10T11:08:44;2.08;;;1.17;;
47617;SDS011;33336;36.728;-4.414;2024-01-10T11:13:54;1.15;;;1.00;;
47617;SDS011;33336;36.728;-4.414;2024-01-10T11:19:17;1.77;;;1.02;;
47617;SDS011;33336;36.728;-4.414;2024-01-10T11:24:40;0.93;;;0.82;;
47617;SDS011;33336;36.728;-4.414;2024-01-10T11:29:43;3.13;;;1.20;;
47617;SDS011;33336;36.728;-4.414;2024-01-10T11:34:55;2.45;;;0.80;;
47617;SDS011;33336;36.728;-4.414;2024-01-10T11:40:00;1.15;;;1.05;;
47617;SDS011;33336;36.728;-4.414;2024-01-10T11:45:04;4.80;;;0.80;;
47617;SDS011;33336;36.728;-4.414;2024-01-10T11:50:10;1.13;;;0.90;;
47617;SDS011;33336;36.728;-4.414;2024-01-10T12:00:50;2.25;;;1.50;;
47617;SDS011;33336;36.728;-4.414;2024-01-10T12:05:55;0.93;;;0.77;;
47617;SDS011;33336;36.728;-4.414;2024-01-10T12:11:00;1.13;;;1.00;;
47617;SDS011;33336;36.728;-4.414;2024-01-10T12:16:03;1.17;;;1.08;;
47617;SDS011;33336;36.728;-4.414;2024-01-10T12:21:08;1.13;;;0.98;;
47617;SDS011;33336;36.728;-4.414;2024-01-10T12:26:13;1.17;;;0.70;;
47617;SDS011;33336;36.728;-4.414;2024-01-10T12:31:17;3.40;;;1.55;;
47617;SDS011;33336;36.728;-4.414;2024-01-10T12:36:21;1.27;;;0.90;;
47617;SDS011;33336;36.728;-4.414;2024-01-10T12:41:25;2.63;;;0.73;;
47617;SDS011;33336;36.728;-4.414;2024-01-10T12:46:28;1.60;;;1.30;;
47617;SDS011;33336;36.728;-4.414;2024-01-10T12:51:34;2.47;;;0.68;;
47617;SDS011;33336;36.728;-4.414;2024-01-10T12:56:38;0.70;;;0.70;;
47617;SDS011;33336;36.728;-4.414;2024-01-10T13:01:41;3.22;;;0.80;;
47617;SDS011;33336;36.728;-4.414;2024-01-10T13:06:45;2.33;;;1.05;;
47617;SDS011;33336;36.728;-4.414;2024-01-10T13:11:49;1.25;;;1.10;;
47617;SDS011;33336;36.728;-4.414;2024-01-10T13:16:55;2.57;;;1.47;;
47617;SDS011;33336;36.728;-4.414;2024-01-10T13:21:59;2.72;;;0.95;;
47617;SDS011;33336;36.728;-4.414;2024-01-10T13:27:05;2.45;;;1.42;;
47617;SDS011;33336;36.728;-4.414;2024-01-10T13:32:09;3.13;;;1.30;;
47617;SDS011;33336;36.728;-4.414;2024-01-10T13:37:13;1.48;;;1.38;;
47617;SDS011;33336;36.728;-4.414;2024-01-10T13:42:18;3.67;;;1.25;;
47617;SDS011;33336;36.728;-4.414;2024-01-10T13:47:21;1.45;;;1.17;;
47617;SDS011;33336;36.728;-4.414;2024-01-10T13:52:26;1.00;;;0.82;;
47617;SDS011;33336;36.728;-4.414;2024-01-10T13:57:29;2.33;;;1.30;;
47617;SDS011;33336;36.728;-4.414;2024-01-10T14:02:35;1.23;;;0.80;;
47617;SDS011;33336;36.728;-4.414;2024-01-10T14:07:39;2.55;;;1.08;;
47617;SDS011;33336;36.728;-4.414;2024-01-10T14:12:48;1.83;;;0.80;;
47617;SDS011;33336;36.728;-4.414;2024-01-10T14:17:51;3.67;;;1.08;;
47617;SDS011;33336;36.728;-4.414;2024-01-10T14:22:56;2.58;;;1.58;;
47617;SDS011;33336;36.728;-4.414;2024-01-10T14:28:00;1.08;;;0.82;;
47617;SDS011;33336;36.728;-4.414;2024-01-10T14:33:04;0.95;;;0.80;;
47617;SDS011;33336;36.728;-4.414;2024-01-10T14:38:08;4.80;;;1.27;;
47617;SDS011;33336;36.728;-4.414;2024-01-10T14:43:13;1.25;;;1.00;;
47617;SDS011;33336;36.728;-4.414;2024-01-10T14:48:15;2.70;;;1.00;;
47617;SDS011;33336;36.728;-4.414;2024-01-10T14:53:20;1.92;;;1.27;;
47617;SDS011;33336;36.728;-4.414;2024-01-10T14:58:23;0.90;;;0.70;;
47617;SDS011;33336;36.728;-4.414;2024-01-10T15:03:27;1.20;;;0.98;;
47617;SDS011;33336;36.728;-4.414;2024-01-10T15:08:31;1.25;;;1.00;;
47617;SDS011;33336;36.728;-4.414;2024-01-10T15:13:37;1.30;;;0.95;;
47617;SDS011;33336;36.728;-4.414;2024-01-10T15:18:42;1.30;;;1.10;;
47617;SDS011;33336;36.728;-4.414;2024-01-10T15:23:47;2.05;;;1.70;;
47617;SDS011;33336;36.728;-4.414;2024-01-10T15:28:50;1.67;;;1.05;;
47617;SDS011;33336;36.728;-4.414;2024-01-10T15:33:55;1.38;;;0.90;;
47617;SDS011;33336;36.728;-4.414;2024-01-10T15:38:59;0.52;;;0.50;;
47617;SDS011;33336;36.728;-4.414;2024-01-10T15:44:09;1.00;;;0.60;;
47617;SDS011;33336;36.728;-4.414;2024-01-10T15:49:13;2.05;;;0.82;;
47617;SDS011;33336;36.728;-4.414;2024-01-10T15:54:18;1.52;;;0.85;;
47617;SDS011;33336;36.728;-4.414;2024-01-10T15:59:24;1.67;;;0.70;;
47617;SDS011;33336;36.728;-4.414;2024-01-10T16:04:45;0.50;;;0.50;;
47617;SDS011;33336;36.728;-4.414;2024-01-10T16:09:49;2.15;;;0.60;;
47617;SDS011;33336;36.728;-4.414;2024-01-10T16:14:52;0.90;;;0.50;;
47617;SDS011;33336;36.728;-4.414;2024-01-10T16:19:58;1.35;;;0.50;;
47617;SDS011;33336;36.728;-4.414;2024-01-10T16:25:01;0.75;;;0.60;;
47617;SDS011;33336;36.728;-4.414;2024-01-10T16:30:06;0.70;;;0.57;;
47617;SDS011;33336;36.728;-4.414;2024-01-10T16:35:11;1.23;;;0.50;;
47617;SDS011;33336;36.728;-4.414;2024-01-10T16:40:16;0.60;;;0.60;;
47617;SDS011;33336;36.728;-4.414;2024-01-10T16:45:19;0.88;;;0.50;;
47617;SDS011;33336;36.728;-4.414;2024-01-10T16:50:24;0.80;;;0.70;;
47617;SDS011;33336;36.728;-4.414;2024-01-10T16:55:30;1.60;;;0.80;;
47617;SDS011;33336;36.728;-4.414;2024-01-10T17:00:33;1.00;;;0.50;;
47617;SDS011;33336;36.728;-4.414;2024-01-10T17:05:37;0.35;;;0.32;;
47617;SDS011;33336;36.728;-4.414;2024-01-10T17:10:42;0.95;;;0.60;;
47617;SDS011;33336;36.728;-4.414;2024-01-10T17:15:45;1.55;;;0.73;;
47617;SDS011;33336;36.728;-4.414;2024-01-10T17:20:52;1.83;;;0.43;;
47617;SDS011;33336;36.728;-4.414;2024-01-10T17:25:54;0.80;;;0.60;;
47617;SDS011;33336;36.728;-4.414;2024-01-10T17:30:58;1.80;;;0.60;;
47617;SDS011;33336;36.728;-4.414;2024-01-10T17:36:03;0.93;;;0.75;;
47617;SDS011;33336;36.728;-4.414;2024-01-10T17:41:07;1.38;;;0.77;;
47617;SDS011;33336;36.728;-4.414;2024-01-10T17:46:12;0.80;;;0.75;;
47617;SDS011;33336;36.728;-4.414;2024-01-10T17:51:17;2.13;;;1.15;;
47617;SDS011;33336;36.728;-4.414;2024-01-10T17:56:22;3.77;;;1.20;;
47617;SDS011;33336;36.728;-4.414;2024-01-10T18:01:25;3.28;;;1.02;;
47617;SDS011;33336;36.728;-4.414;2024-01-10T18:06:29;3.85;;;1.08;;
47617;SDS011;33336;36.728;-4.414;2024-01-10T18:11:32;1.67;;;0.90;;
47617;SDS011;33336;36.728;-4.414;2024-01-10T18:16:37;3.63;;;1.42;;
47617;SDS011;33336;36.728;-4.414;2024-01-10T18:21:42;3.33;;;1.50;;
47617;SDS011;33336;36.728;-4.414;2024-01-10T18:26:44;1.33;;;0.85;;
47617;SDS011;33336;36.728;-4.414;2024-01-10T18:31:49;2.78;;;1.52;;
47617;SDS011;33336;36.728;-4.414;2024-01-10T18:36:54;3.35;;;1.58;;
47617;SDS011;33336;36.728;-4.414;2024-01-10T18:41:57;2.75;;;2.00;;
47617;SDS011;33336;36.728;-4.414;2024-01-10T18:47:01;2.88;;;1.40;;
47617;SDS011;33336;36.728;-4.414;2024-01-10T18:52:07;4.25;;;1.42;;
47617;SDS011;33336;36.728;-4.414;2024-01-10T18:57:09;3.25;;;1.80;;
47617;SDS011;33336;36.728;-4.414;2024-01-10T19:02:14;1.80;;;1.25;;
47617;SDS011;33336;36.728;-4.414;2024-01-10T19:07:19;2.00;;;1.00;;
47617;SDS011;33336;36.728;-4.414;2024-01-10T19:12:23;4.40;;;1.20;;
47617;SDS011;33336;36.728;-4.414;2024-01-10T19:17:28;1.33;;;0.93;;
47617;SDS011;33336;36.728;-4.414;2024-01-10T19:22:33;2.80;;;0.85;;
47617;SDS011;33336;36.728;-4.414;2024-01-10T19:27:36;3.30;;;1.05;;
47617;SDS011;33336;36.728;-4.414;2024-01-10T19:32:40;1.58;;;1.17;;
47617;SDS011;33336;36.728;-4.414;2024-01-10T19:37:45;1.38;;;1.00;;
47617;SDS011;33336;36.728;-4.414;2024-01-10T19:42:49;1.63;;;1.30;;
47617;SDS011;33336;36.728;-4.414;2024-01-10T19:47:53;2.10;;;0.82;;
47617;SDS011;33336;36.728;-4.414;2024-01-10T19:52:58;3.03;;;1.20;;
47617;SDS011;33336;36.728;-4.414;2024-01-10T19:58:02;2.33;;;0.98;;
47617;SDS011;33336;36.728;-4.414;2024-01-10T20:03:06;1.48;;;1.13;;
47617;SDS011;33336;36.728;-4.414;2024-01-10T20:08:11;2.40;;;1.23;;
47617;SDS011;33336;36.728;-4.414;2024-01-10T20:13:15;1.52;;;0.95;;
47617;SDS011;33336;36.728;-4.414;2024-01-10T20:18:19;3.85;;;1.30;;
47617;SDS011;33336;36.728;-4.414;2024-01-10T20:23:25;2.35;;;1.38;;
47617;SDS011;33336;36.728;-4.414;2024-01-10T20:28:28;1.98;;;1.48;;
47617;SDS011;33336;36.728;-4.414;2024-01-10T20:33:34;4.78;;;1.50;;
47617;SDS011;33336;36.728;-4.414;2024-01-10T20:38:42;2.38;;;1.73;;
47617;SDS011;33336;36.728;-4.414;2024-01-10T20:43:46;2.88;;;2.10;;
47617;SDS011;33336;36.728;-4.414;2024-01-10T20:48:50;2.20;;;1.85;;
47617;SDS011;33336;36.728;-4.414;2024-01-10T20:53:58;3.78;;;2.45;;
47617;SDS011;33336;36.728;-4.414;2024-01-10T20:59:02;3.50;;;2.43;;
47617;SDS011;33336;36.728;-4.414;2024-01-10T21:04:09;3.60;;;2.00;;
47617;SDS011;33336;36.728;-4.414;2024-01-10T21:09:14;2.10;;;1.83;;
47617;SDS011;33336;36.728;-4.414;2024-01-10T21:14:18;2.25;;;1.85;;
47617;SDS011;33336;36.728;-4.414;2024-01-10T21:19:22;2.00;;;1.63;;
47617;SDS011;33336;36.728;-4.414;2024-01-10T21:24:29;3.85;;;2.22;;
47617;SDS011;33336;36.728;-4.414;2024-01-10T21:29:35;2.85;;;2.15;;
47617;SDS011;33336;36.728;-4.414;2024-01-10T21:34:39;2.97;;;2.25;;
47617;SDS011;33336;36.728;-4.414;2024-01-10T21:39:44;3.40;;;2.00;;
47617;SDS011;33336;36.728;-4.414;2024-01-10T21:44:48;2.55;;;1.70;;
47617;SDS011;33336;36.728;-4.414;2024-01-10T21:49:52;1.25;;;1.08;;
47617;SDS011;33336;36.728;-4.414;2024-01-10T21:54:58;4.90;;;1.92;;
47617;SDS011;33336;36.728;-4.414;2024-01-10T22:00:01;1.00;;;0.70;;
47617;SDS011;33336;36.728;-4.414;2024-01-10T22:05:06;1.00;;;0.80;;
47617;SDS011;33336;36.728;-4.414;2024-01-10T22:10:11;2.03;;;1.02;;
47617;SDS011;33336;36.728;-4.414;2024-01-10T22:15:15;1.88;;;0.90;;
47617;SDS011;33336;36.728;-4.414;2024-01-10T22:20:19;2.40;;;1.00;;
47617;SDS011;33336;36.728;-4.414;2024-01-10T22:25:23;1.33;;;0.77;;
47617;SDS011;33336;36.728;-4.414;2024-01-10T22:30:27;3.45;;;1.55;;
47617;SDS011;33336;36.728;-4.414;2024-01-10T22:35:30;1.80;;;1.25;;
47617;SDS011;33336;36.728;-4.414;2024-01-10T22:40:34;2.88;;;0.98;;
47617;SDS011;33336;36.728;-4.414;2024-01-10T22:45:38;2.00;;;1.83;;
47617;SDS011;33336;36.728;-4.414;2024-01-10T22:50:41;1.80;;;1.10;;
47617;SDS011;33336;36.728;-4.414;2024-01-10T22:55:45;2.97;;;1.45;;
47617;SDS011;33336;36.728;-4.414;2024-01-10T23:00:48;1.98;;;1.58;;
47617;SDS011;33336;36.728;-4.414;2024-01-10T23:05:52;2.70;;;1.35;;
47617;SDS011;33336;36.728;-4.414;2024-01-10T23:10:56;2.38;;;1.80;;
47617;SDS011;33336;36.728;-4.414;2024-01-10T23:16:01;3.55;;;1.52;;
47617;SDS011;33336;36.728;-4.414;2024-01-10T23:21:04;2.17;;;1.55;;
47617;SDS011;33336;36.728;-4.414;2024-01-10T23:26:09;2.17;;;1.60;;
47617;SDS011;33336;36.728;-4.414;2024-01-10T23:31:15;2.72;;;1.92;;
47617;SDS011;33336;36.728;-4.414;2024-01-10T23:36:19;4.60;;;2.17;;
47617;SDS011;33336;36.728;-4.414;2024-01-10T23:41:25;4.05;;;2.88;;
47617;SDS011;33336;36.728;-4.414;2024-01-10T23:46:28;2.28;;;1.75;;
47617;SDS011;33336;36.728;-4.414;2024-01-10T23:51:31;3.78;;;1.90;;
47617;SDS011;33336;36.728;-4.414;2024-01-10T23:56:35;2.85;;;1.67;;
